sensor_id;sensor_type;location;lat;lon;timestamp;temperature;humidity
61201;DHT22;47065;52.898;6.992;2023-02-25T00:02:07;4.10;99.90
61201;DHT22;47065;52.898;6.992;2023-02-25T00:04:33;4.00;99.90
61201;DHT22;47065;52.898;6.992;2023-02-25T00:06:59;4.00;99.90
61201;DHT22;47065;52.898;6.992;2023-02-25T00:09:25;4.00;99.90
61201;DHT22;47065;52.898;6.992;2023-02-25T00:11:51;4.00;99.90
61201;DHT22;47065;52.898;6.992;2023-02-25T00:14:17;4.00;99.90
61201;DHT22;47065;52.898;6.992;2023-02-25T00:16:43;4.10;99.90
61201;DHT22;47065;52.898;6.992;2023-02-25T00:19:09;4.10;99.90
61201;DHT22;47065;52.898;6.992;2023-02-25T00:21:35;4.10;99.90
61201;DHT22;47065;52.898;6.992;2023-02-25T00:24:00;4.10;99.90
61201;DHT22;47065;52.898;6.992;2023-02-25T00:26:26;4.20;99.90
61201;DHT22;47065;52.898;6.992;2023-02-25T00:28:52;4.20;99.90
61201;DHT22;47065;52.898;6.992;2023-02-25T00:31:21;4.30;99.90
61201;DHT22;47065;52.898;6.992;2023-02-25T00:33:47;4.30;99.90
61201;DHT22;47065;52.898;6.992;2023-02-25T00:36:16;4.30;99.90
61201;DHT22;47065;52.898;6.992;2023-02-25T00:38:46;4.40;99.90
61201;DHT22;47065;52.898;6.992;2023-02-25T00:41:14;4.30;99.90
61201;DHT22;47065;52.898;6.992;2023-02-25T00:43:42;4.30;99.90
61201;DHT22;47065;52.898;6.992;2023-02-25T00:46:09;4.30;99.90
61201;DHT22;47065;52.898;6.992;2023-02-25T00:48:36;4.30;99.90
61201;DHT22;47065;52.898;6.992;2023-02-25T00:51:09;4.30;99.90
61201;DHT22;47065;52.898;6.992;2023-02-25T00:53:36;4.20;99.90
61201;DHT22;47065;52.898;6.992;2023-02-25T00:56:03;4.20;99.90
61201;DHT22;47065;52.898;6.992;2023-02-25T00:58:29;4.10;99.90
61201;DHT22;47065;52.898;6.992;2023-02-25T01:00:55;4.10;99.90
61201;DHT22;47065;52.898;6.992;2023-02-25T01:03:21;4.10;99.90
61201;DHT22;47065;52.898;6.992;2023-02-25T01:05:47;4.10;99.90
61201;DHT22;47065;52.898;6.992;2023-02-25T01:08:17;4.00;99.90
61201;DHT22;47065;52.898;6.992;2023-02-25T01:10:43;4.00;99.90
61201;DHT22;47065;52.898;6.992;2023-02-25T01:13:09;4.00;99.90
61201;DHT22;47065;52.898;6.992;2023-02-25T01:15:34;4.00;99.90
61201;DHT22;47065;52.898;6.992;2023-02-25T01:18:00;4.00;99.90
61201;DHT22;47065;52.898;6.992;2023-02-25T01:20:26;4.00;99.90
61201;DHT22;47065;52.898;6.992;2023-02-25T01:22:54;4.00;99.90
61201;DHT22;47065;52.898;6.992;2023-02-25T01:25:20;4.00;99.90
61201;DHT22;47065;52.898;6.992;2023-02-25T01:27:47;4.00;99.90
61201;DHT22;47065;52.898;6.992;2023-02-25T01:30:13;4.00;99.90
61201;DHT22;47065;52.898;6.992;2023-02-25T01:32:38;4.00;99.90
61201;DHT22;47065;52.898;6.992;2023-02-25T01:35:04;3.90;99.90
61201;DHT22;47065;52.898;6.992;2023-02-25T01:37:30;4.00;99.90
61201;DHT22;47065;52.898;6.992;2023-02-25T01:39:55;4.00;99.90
61201;DHT22;47065;52.898;6.992;2023-02-25T01:42:21;4.00;99.90
61201;DHT22;47065;52.898;6.992;2023-02-25T01:48:07;3.90;99.90
61201;DHT22;47065;52.898;6.992;2023-02-25T01:53:14;3.90;99.90
61201;DHT22;47065;52.898;6.992;2023-02-25T01:55:42;3.90;99.90
61201;DHT22;47065;52.898;6.992;2023-02-25T01:58:08;3.80;99.90
61201;DHT22;47065;52.898;6.992;2023-02-25T02:00:35;3.80;99.90
61201;DHT22;47065;52.898;6.992;2023-02-25T02:03:01;3.70;99.90
61201;DHT22;47065;52.898;6.992;2023-02-25T02:05:39;3.70;99.90
61201;DHT22;47065;52.898;6.992;2023-02-25T02:08:07;3.60;99.90
61201;DHT22;47065;52.898;6.992;2023-02-25T02:10:33;3.60;99.90
61201;DHT22;47065;52.898;6.992;2023-02-25T02:12:59;3.50;99.90
61201;DHT22;47065;52.898;6.992;2023-02-25T02:15:25;3.50;99.90
61201;DHT22;47065;52.898;6.992;2023-02-25T02:18:01;3.50;99.90
61201;DHT22;47065;52.898;6.992;2023-02-25T02:21:05;3.50;99.90
61201;DHT22;47065;52.898;6.992;2023-02-25T02:24:03;3.40;99.90
61201;DHT22;47065;52.898;6.992;2023-02-25T02:37:39;3.30;99.90
61201;DHT22;47065;52.898;6.992;2023-02-25T02:40:30;3.30;99.90
61201;DHT22;47065;52.898;6.992;2023-02-25T02:43:10;3.30;99.90
61201;DHT22;47065;52.898;6.992;2023-02-25T02:46:01;3.30;99.90
61201;DHT22;47065;52.898;6.992;2023-02-25T02:48:40;3.30;99.90
61201;DHT22;47065;52.898;6.992;2023-02-25T02:51:16;3.30;99.90
61201;DHT22;47065;52.898;6.992;2023-02-25T02:53:50;3.40;99.90
61201;DHT22;47065;52.898;6.992;2023-02-25T02:56:18;3.40;99.90
61201;DHT22;47065;52.898;6.992;2023-02-25T02:58:51;3.50;99.90
61201;DHT22;47065;52.898;6.992;2023-02-25T03:01:22;3.60;99.90
61201;DHT22;47065;52.898;6.992;2023-02-25T03:04:02;3.70;99.90
61201;DHT22;47065;52.898;6.992;2023-02-25T03:06:34;3.70;99.90
61201;DHT22;47065;52.898;6.992;2023-02-25T03:09:11;3.70;99.90
61201;DHT22;47065;52.898;6.992;2023-02-25T03:11:38;3.70;99.90
61201;DHT22;47065;52.898;6.992;2023-02-25T03:14:04;3.60;99.90
61201;DHT22;47065;52.898;6.992;2023-02-25T03:16:40;3.60;99.90
61201;DHT22;47065;52.898;6.992;2023-02-25T03:19:16;3.60;99.90
61201;DHT22;47065;52.898;6.992;2023-02-25T03:21:48;3.60;99.90
61201;DHT22;47065;52.898;6.992;2023-02-25T03:24:19;3.60;99.90
61201;DHT22;47065;52.898;6.992;2023-02-25T03:26:49;3.60;99.90
61201;DHT22;47065;52.898;6.992;2023-02-25T03:29:17;3.60;99.90
61201;DHT22;47065;52.898;6.992;2023-02-25T03:31:54;3.60;99.90
61201;DHT22;47065;52.898;6.992;2023-02-25T03:34:29;3.60;99.90
61201;DHT22;47065;52.898;6.992;2023-02-25T03:37:02;3.60;99.90
61201;DHT22;47065;52.898;6.992;2023-02-25T03:39:37;3.60;99.90
61201;DHT22;47065;52.898;6.992;2023-02-25T03:42:07;3.60;99.90
61201;DHT22;47065;52.898;6.992;2023-02-25T03:44:45;3.60;99.90
61201;DHT22;47065;52.898;6.992;2023-02-25T03:47:12;3.60;99.90
61201;DHT22;47065;52.898;6.992;2023-02-25T03:49:55;3.60;99.90
61201;DHT22;47065;52.898;6.992;2023-02-25T03:52:23;3.60;99.90
61201;DHT22;47065;52.898;6.992;2023-02-25T03:54:51;3.60;99.90
61201;DHT22;47065;52.898;6.992;2023-02-25T03:57:18;3.60;99.90
61201;DHT22;47065;52.898;6.992;2023-02-25T03:59:44;3.60;99.90
61201;DHT22;47065;52.898;6.992;2023-02-25T04:02:11;3.70;99.90
61201;DHT22;47065;52.898;6.992;2023-02-25T04:04:38;3.60;99.90
61201;DHT22;47065;52.898;6.992;2023-02-25T04:07:04;3.70;99.90
61201;DHT22;47065;52.898;6.992;2023-02-25T04:09:29;3.70;99.90
61201;DHT22;47065;52.898;6.992;2023-02-25T04:11:55;3.70;99.90
61201;DHT22;47065;52.898;6.992;2023-02-25T04:14:22;3.80;99.90
61201;DHT22;47065;52.898;6.992;2023-02-25T04:16:48;3.80;99.90
61201;DHT22;47065;52.898;6.992;2023-02-25T04:19:13;3.80;99.90
61201;DHT22;47065;52.898;6.992;2023-02-25T04:21:39;3.80;99.90
61201;DHT22;47065;52.898;6.992;2023-02-25T04:24:05;3.90;99.90
61201;DHT22;47065;52.898;6.992;2023-02-25T04:26:32;3.90;99.90
61201;DHT22;47065;52.898;6.992;2023-02-25T04:28:58;3.90;99.90
61201;DHT22;47065;52.898;6.992;2023-02-25T04:31:23;3.90;99.90
61201;DHT22;47065;52.898;6.992;2023-02-25T04:33:49;3.90;99.90
61201;DHT22;47065;52.898;6.992;2023-02-25T04:36:26;3.90;99.90
61201;DHT22;47065;52.898;6.992;2023-02-25T04:38:53;3.90;99.90
61201;DHT22;47065;52.898;6.992;2023-02-25T04:41:20;3.90;99.90
61201;DHT22;47065;52.898;6.992;2023-02-25T04:43:45;4.00;99.90
61201;DHT22;47065;52.898;6.992;2023-02-25T04:46:12;3.90;99.90
61201;DHT22;47065;52.898;6.992;2023-02-25T04:48:38;3.80;99.90
61201;DHT22;47065;52.898;6.992;2023-02-25T04:51:05;3.80;99.90
61201;DHT22;47065;52.898;6.992;2023-02-25T04:53:31;3.70;99.90
61201;DHT22;47065;52.898;6.992;2023-02-25T04:56:02;3.60;99.90
61201;DHT22;47065;52.898;6.992;2023-02-25T04:58:28;3.60;99.90
61201;DHT22;47065;52.898;6.992;2023-02-25T05:00:53;3.60;99.90
61201;DHT22;47065;52.898;6.992;2023-02-25T05:03:22;3.60;99.90
61201;DHT22;47065;52.898;6.992;2023-02-25T05:05:50;3.60;99.90
61201;DHT22;47065;52.898;6.992;2023-02-25T05:08:15;3.60;99.90
61201;DHT22;47065;52.898;6.992;2023-02-25T05:10:41;3.60;99.90
61201;DHT22;47065;52.898;6.992;2023-02-25T05:13:07;3.60;99.90
61201;DHT22;47065;52.898;6.992;2023-02-25T05:15:32;3.60;99.90
61201;DHT22;47065;52.898;6.992;2023-02-25T05:17:58;3.60;99.90
61201;DHT22;47065;52.898;6.992;2023-02-25T05:20:24;3.60;99.90
61201;DHT22;47065;52.898;6.992;2023-02-25T05:22:50;3.60;99.90
61201;DHT22;47065;52.898;6.992;2023-02-25T05:25:16;3.60;99.90
61201;DHT22;47065;52.898;6.992;2023-02-25T05:27:41;3.60;99.90
61201;DHT22;47065;52.898;6.992;2023-02-25T05:30:08;3.60;99.90
61201;DHT22;47065;52.898;6.992;2023-02-25T05:32:34;3.60;99.90
61201;DHT22;47065;52.898;6.992;2023-02-25T05:34:59;3.60;99.90
61201;DHT22;47065;52.898;6.992;2023-02-25T05:37:25;3.60;99.90
61201;DHT22;47065;52.898;6.992;2023-02-25T05:39:51;3.60;99.90
61201;DHT22;47065;52.898;6.992;2023-02-25T05:42:17;3.60;99.90
61201;DHT22;47065;52.898;6.992;2023-02-25T05:44:42;3.60;99.90
61201;DHT22;47065;52.898;6.992;2023-02-25T05:47:08;3.60;99.90
61201;DHT22;47065;52.898;6.992;2023-02-25T05:49:34;3.50;99.90
61201;DHT22;47065;52.898;6.992;2023-02-25T05:51:59;3.50;99.90
61201;DHT22;47065;52.898;6.992;2023-02-25T05:54:25;3.50;99.90
61201;DHT22;47065;52.898;6.992;2023-02-25T05:56:51;3.50;99.90
61201;DHT22;47065;52.898;6.992;2023-02-25T05:59:18;3.40;99.90
61201;DHT22;47065;52.898;6.992;2023-02-25T06:01:44;3.30;99.90
61201;DHT22;47065;52.898;6.992;2023-02-25T06:04:10;3.00;99.90
61201;DHT22;47065;52.898;6.992;2023-02-25T06:06:35;2.70;99.90
61201;DHT22;47065;52.898;6.992;2023-02-25T06:09:02;2.50;99.90
61201;DHT22;47065;52.898;6.992;2023-02-25T06:11:30;2.40;99.90
61201;DHT22;47065;52.898;6.992;2023-02-25T06:13:57;2.30;99.90
61201;DHT22;47065;52.898;6.992;2023-02-25T06:16:24;2.20;99.90
61201;DHT22;47065;52.898;6.992;2023-02-25T06:18:50;2.30;99.90
61201;DHT22;47065;52.898;6.992;2023-02-25T06:21:16;2.20;99.90
61201;DHT22;47065;52.898;6.992;2023-02-25T06:23:43;2.20;99.90
61201;DHT22;47065;52.898;6.992;2023-02-25T06:26:11;2.40;99.90
61201;DHT22;47065;52.898;6.992;2023-02-25T06:28:38;2.40;99.90
61201;DHT22;47065;52.898;6.992;2023-02-25T06:31:10;2.50;99.90
61201;DHT22;47065;52.898;6.992;2023-02-25T06:33:36;2.70;99.90
61201;DHT22;47065;52.898;6.992;2023-02-25T06:36:03;2.90;99.90
61201;DHT22;47065;52.898;6.992;2023-02-25T06:38:30;3.10;99.90
61201;DHT22;47065;52.898;6.992;2023-02-25T06:40:56;3.20;99.90
61201;DHT22;47065;52.898;6.992;2023-02-25T06:43:22;3.30;99.90
61201;DHT22;47065;52.898;6.992;2023-02-25T06:45:47;3.50;99.90
61201;DHT22;47065;52.898;6.992;2023-02-25T06:48:13;3.50;99.90
61201;DHT22;47065;52.898;6.992;2023-02-25T06:50:40;3.60;99.90
61201;DHT22;47065;52.898;6.992;2023-02-25T06:53:06;3.50;99.90
61201;DHT22;47065;52.898;6.992;2023-02-25T06:55:32;3.60;99.90
61201;DHT22;47065;52.898;6.992;2023-02-25T06:57:58;3.50;99.90
61201;DHT22;47065;52.898;6.992;2023-02-25T07:00:24;3.50;99.90
61201;DHT22;47065;52.898;6.992;2023-02-25T07:02:49;3.50;99.90
61201;DHT22;47065;52.898;6.992;2023-02-25T07:05:15;3.50;99.90
61201;DHT22;47065;52.898;6.992;2023-02-25T07:07:41;3.40;99.90
61201;DHT22;47065;52.898;6.992;2023-02-25T07:10:07;3.40;99.90
61201;DHT22;47065;52.898;6.992;2023-02-25T07:12:35;3.40;99.90
61201;DHT22;47065;52.898;6.992;2023-02-25T07:15:00;3.40;99.90
61201;DHT22;47065;52.898;6.992;2023-02-25T07:17:26;3.40;99.90
61201;DHT22;47065;52.898;6.992;2023-02-25T07:19:52;3.40;99.90
61201;DHT22;47065;52.898;6.992;2023-02-25T07:22:18;3.40;99.90
61201;DHT22;47065;52.898;6.992;2023-02-25T07:24:44;3.40;99.90
61201;DHT22;47065;52.898;6.992;2023-02-25T07:27:12;3.40;99.90
61201;DHT22;47065;52.898;6.992;2023-02-25T07:29:39;3.50;99.90
61201;DHT22;47065;52.898;6.992;2023-02-25T07:32:05;3.50;99.90
61201;DHT22;47065;52.898;6.992;2023-02-25T07:34:31;3.50;99.90
61201;DHT22;47065;52.898;6.992;2023-02-25T07:36:57;3.50;99.90
61201;DHT22;47065;52.898;6.992;2023-02-25T07:39:22;3.50;99.90
61201;DHT22;47065;52.898;6.992;2023-02-25T07:41:48;3.50;99.90
61201;DHT22;47065;52.898;6.992;2023-02-25T07:44:14;3.50;99.90
61201;DHT22;47065;52.898;6.992;2023-02-25T07:46:39;3.50;99.90
61201;DHT22;47065;52.898;6.992;2023-02-25T07:49:06;3.50;99.90
61201;DHT22;47065;52.898;6.992;2023-02-25T07:51:32;3.50;99.90
61201;DHT22;47065;52.898;6.992;2023-02-25T07:53:58;3.50;99.90
61201;DHT22;47065;52.898;6.992;2023-02-25T07:56:26;3.60;99.90
61201;DHT22;47065;52.898;6.992;2023-02-25T07:58:51;3.50;99.90
61201;DHT22;47065;52.898;6.992;2023-02-25T08:01:20;3.60;99.90
61201;DHT22;47065;52.898;6.992;2023-02-25T08:03:56;3.60;99.90
61201;DHT22;47065;52.898;6.992;2023-02-25T08:06:22;3.60;99.90
61201;DHT22;47065;52.898;6.992;2023-02-25T08:08:48;3.50;99.90
61201;DHT22;47065;52.898;6.992;2023-02-25T08:11:17;3.50;99.90
61201;DHT22;47065;52.898;6.992;2023-02-25T08:13:43;3.50;99.90
61201;DHT22;47065;52.898;6.992;2023-02-25T08:16:12;3.50;99.90
61201;DHT22;47065;52.898;6.992;2023-02-25T08:18:39;3.60;99.90
61201;DHT22;47065;52.898;6.992;2023-02-25T08:21:10;3.60;99.90
61201;DHT22;47065;52.898;6.992;2023-02-25T08:23:36;3.70;99.90
61201;DHT22;47065;52.898;6.992;2023-02-25T08:26:01;3.80;99.90
61201;DHT22;47065;52.898;6.992;2023-02-25T08:28:28;3.90;99.90
61201;DHT22;47065;52.898;6.992;2023-02-25T08:30:57;3.90;99.90
61201;DHT22;47065;52.898;6.992;2023-02-25T08:33:24;4.00;99.90
61201;DHT22;47065;52.898;6.992;2023-02-25T08:35:50;4.10;99.90
61201;DHT22;47065;52.898;6.992;2023-02-25T08:38:16;4.10;99.90
61201;DHT22;47065;52.898;6.992;2023-02-25T08:40:42;4.20;99.90
61201;DHT22;47065;52.898;6.992;2023-02-25T08:43:08;4.20;99.90
61201;DHT22;47065;52.898;6.992;2023-02-25T08:45:36;4.20;99.90
61201;DHT22;47065;52.898;6.992;2023-02-25T08:48:02;4.10;99.90
61201;DHT22;47065;52.898;6.992;2023-02-25T08:50:29;4.10;99.90
61201;DHT22;47065;52.898;6.992;2023-02-25T08:52:55;4.10;99.90
61201;DHT22;47065;52.898;6.992;2023-02-25T08:55:22;4.10;99.90
61201;DHT22;47065;52.898;6.992;2023-02-25T08:57:50;4.00;99.90
61201;DHT22;47065;52.898;6.992;2023-02-25T09:00:16;4.00;99.90
61201;DHT22;47065;52.898;6.992;2023-02-25T09:02:42;4.00;99.90
61201;DHT22;47065;52.898;6.992;2023-02-25T09:05:09;4.00;99.90
61201;DHT22;47065;52.898;6.992;2023-02-25T09:07:35;4.10;99.90
61201;DHT22;47065;52.898;6.992;2023-02-25T09:10:01;4.20;99.90
61201;DHT22;47065;52.898;6.992;2023-02-25T09:12:29;4.30;99.90
61201;DHT22;47065;52.898;6.992;2023-02-25T09:14:55;4.40;99.90
61201;DHT22;47065;52.898;6.992;2023-02-25T09:17:20;4.40;99.90
61201;DHT22;47065;52.898;6.992;2023-02-25T09:19:46;4.50;99.90
61201;DHT22;47065;52.898;6.992;2023-02-25T09:22:12;4.50;99.90
61201;DHT22;47065;52.898;6.992;2023-02-25T09:24:37;4.50;99.90
61201;DHT22;47065;52.898;6.992;2023-02-25T09:27:03;4.60;99.90
61201;DHT22;47065;52.898;6.992;2023-02-25T09:29:37;4.60;99.90
61201;DHT22;47065;52.898;6.992;2023-02-25T09:32:03;4.70;99.90
61201;DHT22;47065;52.898;6.992;2023-02-25T09:34:29;4.90;99.90
61201;DHT22;47065;52.898;6.992;2023-02-25T09:36:58;5.00;99.90
61201;DHT22;47065;52.898;6.992;2023-02-25T09:39:24;5.10;99.90
61201;DHT22;47065;52.898;6.992;2023-02-25T09:41:53;5.10;99.90
61201;DHT22;47065;52.898;6.992;2023-02-25T09:44:30;5.00;99.90
61201;DHT22;47065;52.898;6.992;2023-02-25T09:47:02;4.90;99.90
61201;DHT22;47065;52.898;6.992;2023-02-25T09:49:51;4.90;99.90
61201;DHT22;47065;52.898;6.992;2023-02-25T09:52:27;5.00;99.90
61201;DHT22;47065;52.898;6.992;2023-02-25T09:57:28;5.50;99.90
61201;DHT22;47065;52.898;6.992;2023-02-25T09:59:56;5.70;99.90
61201;DHT22;47065;52.898;6.992;2023-02-25T10:05:25;6.00;99.90
61201;DHT22;47065;52.898;6.992;2023-02-25T10:08:17;6.20;99.90
61201;DHT22;47065;52.898;6.992;2023-02-25T10:11:10;6.10;99.90
61201;DHT22;47065;52.898;6.992;2023-02-25T10:13:53;5.90;99.90
61201;DHT22;47065;52.898;6.992;2023-02-25T10:18:56;5.50;99.90
61201;DHT22;47065;52.898;6.992;2023-02-25T10:21:58;5.40;99.90
61201;DHT22;47065;52.898;6.992;2023-02-25T10:24:40;5.20;99.90
61201;DHT22;47065;52.898;6.992;2023-02-25T10:27:27;5.30;99.90
61201;DHT22;47065;52.898;6.992;2023-02-25T10:30:00;5.40;99.90
61201;DHT22;47065;52.898;6.992;2023-02-25T10:32:32;5.60;99.90
61201;DHT22;47065;52.898;6.992;2023-02-25T10:35:00;5.90;99.90
61201;DHT22;47065;52.898;6.992;2023-02-25T10:37:34;6.10;99.90
61201;DHT22;47065;52.898;6.992;2023-02-25T10:40:02;6.30;99.90
61201;DHT22;47065;52.898;6.992;2023-02-25T10:42:29;6.40;99.90
61201;DHT22;47065;52.898;6.992;2023-02-25T10:45:00;6.50;99.90
61201;DHT22;47065;52.898;6.992;2023-02-25T10:47:34;6.60;99.90
61201;DHT22;47065;52.898;6.992;2023-02-25T10:50:20;6.80;99.90
61201;DHT22;47065;52.898;6.992;2023-02-25T10:57:59;6.90;99.90
61201;DHT22;47065;52.898;6.992;2023-02-25T11:00:33;7.00;99.90
61201;DHT22;47065;52.898;6.992;2023-02-25T11:03:02;7.20;99.90
61201;DHT22;47065;52.898;6.992;2023-02-25T11:05:39;7.20;99.90
61201;DHT22;47065;52.898;6.992;2023-02-25T11:08:28;7.10;99.90
61201;DHT22;47065;52.898;6.992;2023-02-25T11:13:42;6.60;90.10
61201;DHT22;47065;52.898;6.992;2023-02-25T11:16:10;6.50;85.00
61201;DHT22;47065;52.898;6.992;2023-02-25T11:18:37;6.50;87.60
61201;DHT22;47065;52.898;6.992;2023-02-25T11:21:06;6.50;87.10
61201;DHT22;47065;52.898;6.992;2023-02-25T11:26:00;6.60;76.90
61201;DHT22;47065;52.898;6.992;2023-02-25T11:28:33;6.60;73.30
61201;DHT22;47065;52.898;6.992;2023-02-25T11:31:16;6.80;73.50
61201;DHT22;47065;52.898;6.992;2023-02-25T11:33:48;6.90;78.90
61201;DHT22;47065;52.898;6.992;2023-02-25T11:36:22;7.00;82.20
61201;DHT22;47065;52.898;6.992;2023-02-25T11:38:49;7.20;84.80
61201;DHT22;47065;52.898;6.992;2023-02-25T11:41:29;7.30;80.80
61201;DHT22;47065;52.898;6.992;2023-02-25T11:43:56;7.50;91.00
61201;DHT22;47065;52.898;6.992;2023-02-25T11:46:24;7.60;78.20
61201;DHT22;47065;52.898;6.992;2023-02-25T11:48:59;7.60;77.70
61201;DHT22;47065;52.898;6.992;2023-02-25T11:51:52;7.60;77.50
61201;DHT22;47065;52.898;6.992;2023-02-25T11:54:24;7.40;72.40
61201;DHT22;47065;52.898;6.992;2023-02-25T11:59:34;7.00;73.20
61201;DHT22;47065;52.898;6.992;2023-02-25T12:04:59;7.10;75.30
61201;DHT22;47065;52.898;6.992;2023-02-25T12:07:37;7.10;91.20
61201;DHT22;47065;52.898;6.992;2023-02-25T12:15:59;7.30;71.00
61201;DHT22;47065;52.898;6.992;2023-02-25T12:30:43;7.70;71.90
61201;DHT22;47065;52.898;6.992;2023-02-25T12:39:02;7.10;70.80
61201;DHT22;47065;52.898;6.992;2023-02-25T12:42:25;7.00;68.80
61201;DHT22;47065;52.898;6.992;2023-02-25T12:45:14;7.00;73.30
61201;DHT22;47065;52.898;6.992;2023-02-25T12:53:49;7.30;66.70
61201;DHT22;47065;52.898;6.992;2023-02-25T13:08:32;7.20;69.20
61201;DHT22;47065;52.898;6.992;2023-02-25T13:14:55;7.30;70.50
61201;DHT22;47065;52.898;6.992;2023-02-25T13:17:46;7.20;65.50
61201;DHT22;47065;52.898;6.992;2023-02-25T13:20:42;7.20;71.10
61201;DHT22;47065;52.898;6.992;2023-02-25T13:29:32;7.20;70.90
61201;DHT22;47065;52.898;6.992;2023-02-25T13:41:25;7.10;71.20
61201;DHT22;47065;52.898;6.992;2023-02-25T13:52:20;7.00;69.20
61201;DHT22;47065;52.898;6.992;2023-02-25T13:54:47;6.90;72.00
61201;DHT22;47065;52.898;6.992;2023-02-25T13:57:50;6.80;73.10
61201;DHT22;47065;52.898;6.992;2023-02-25T14:00:34;6.80;73.10
61201;DHT22;47065;52.898;6.992;2023-02-25T14:11:25;6.80;77.40
61201;DHT22;47065;52.898;6.992;2023-02-25T14:17:39;6.70;73.10
61201;DHT22;47065;52.898;6.992;2023-02-25T14:20:27;6.70;72.20
61201;DHT22;47065;52.898;6.992;2023-02-25T14:23:08;6.70;71.80
61201;DHT22;47065;52.898;6.992;2023-02-25T14:31:24;6.70;76.60
61201;DHT22;47065;52.898;6.992;2023-02-25T14:37:42;6.70;77.80
61201;DHT22;47065;52.898;6.992;2023-02-25T14:40:05;6.60;73.20
61201;DHT22;47065;52.898;6.992;2023-02-25T14:45:44;6.30;76.40
61201;DHT22;47065;52.898;6.992;2023-02-25T14:57:39;6.00;73.00
61201;DHT22;47065;52.898;6.992;2023-02-25T15:06:41;5.70;80.10
61201;DHT22;47065;52.898;6.992;2023-02-25T15:22:27;5.50;91.50
61201;DHT22;47065;52.898;6.992;2023-02-25T15:27:47;5.40;91.20
61201;DHT22;47065;52.898;6.992;2023-02-25T15:30:16;5.40;89.60
61201;DHT22;47065;52.898;6.992;2023-02-25T15:35:50;5.40;88.50
61201;DHT22;47065;52.898;6.992;2023-02-25T15:40:54;5.40;90.80
61201;DHT22;47065;52.898;6.992;2023-02-25T15:55:52;5.20;98.10
61201;DHT22;47065;52.898;6.992;2023-02-25T15:58:51;5.20;99.40
61201;DHT22;47065;52.898;6.992;2023-02-25T16:03:46;5.20;95.30
61201;DHT22;47065;52.898;6.992;2023-02-25T16:06:16;5.10;98.60
61201;DHT22;47065;52.898;6.992;2023-02-25T16:11:37;5.00;99.90
61201;DHT22;47065;52.898;6.992;2023-02-25T16:14:19;5.00;99.90
61201;DHT22;47065;52.898;6.992;2023-02-25T16:17:16;5.00;99.90
61201;DHT22;47065;52.898;6.992;2023-02-25T16:19:42;5.00;99.90
61201;DHT22;47065;52.898;6.992;2023-02-25T16:22:16;5.00;97.30
61201;DHT22;47065;52.898;6.992;2023-02-25T16:24:47;5.00;99.20
61201;DHT22;47065;52.898;6.992;2023-02-25T16:27:33;5.00;99.90
61201;DHT22;47065;52.898;6.992;2023-02-25T16:30:36;4.90;99.90
61201;DHT22;47065;52.898;6.992;2023-02-25T16:33:28;4.90;99.90
61201;DHT22;47065;52.898;6.992;2023-02-25T16:36:11;4.80;99.90
61201;DHT22;47065;52.898;6.992;2023-02-25T16:39:00;4.70;99.90
61201;DHT22;47065;52.898;6.992;2023-02-25T16:41:30;4.60;99.90
61201;DHT22;47065;52.898;6.992;2023-02-25T16:43:56;4.60;99.90
61201;DHT22;47065;52.898;6.992;2023-02-25T16:46:29;4.40;99.90
61201;DHT22;47065;52.898;6.992;2023-02-25T16:48:58;4.40;99.90
61201;DHT22;47065;52.898;6.992;2023-02-25T16:51:37;4.30;99.90
61201;DHT22;47065;52.898;6.992;2023-02-25T16:54:22;4.20;99.90
61201;DHT22;47065;52.898;6.992;2023-02-25T16:56:53;4.20;99.90
61201;DHT22;47065;52.898;6.992;2023-02-25T16:59:20;4.10;99.90
61201;DHT22;47065;52.898;6.992;2023-02-25T17:02:01;4.00;99.90
61201;DHT22;47065;52.898;6.992;2023-02-25T17:04:33;3.90;99.90
61201;DHT22;47065;52.898;6.992;2023-02-25T17:07:18;3.90;99.90
61201;DHT22;47065;52.898;6.992;2023-02-25T17:10:03;3.90;99.90
61201;DHT22;47065;52.898;6.992;2023-02-25T17:12:42;3.80;99.90
61201;DHT22;47065;52.898;6.992;2023-02-25T17:15:16;3.80;99.90
61201;DHT22;47065;52.898;6.992;2023-02-25T17:17:44;3.60;99.90
61201;DHT22;47065;52.898;6.992;2023-02-25T17:20:17;3.50;99.90
61201;DHT22;47065;52.898;6.992;2023-02-25T17:22:44;3.30;99.90
61201;DHT22;47065;52.898;6.992;2023-02-25T17:25:11;3.20;99.90
61201;DHT22;47065;52.898;6.992;2023-02-25T17:27:41;3.10;99.90
61201;DHT22;47065;52.898;6.992;2023-02-25T17:30:33;3.00;99.90
61201;DHT22;47065;52.898;6.992;2023-02-25T17:32:59;2.90;99.90
61201;DHT22;47065;52.898;6.992;2023-02-25T17:35:26;2.90;99.90
61201;DHT22;47065;52.898;6.992;2023-02-25T17:37:53;2.80;99.90
61201;DHT22;47065;52.898;6.992;2023-02-25T17:40:27;2.70;99.90
61201;DHT22;47065;52.898;6.992;2023-02-25T17:43:22;2.70;99.90
61201;DHT22;47065;52.898;6.992;2023-02-25T17:48:25;2.70;99.90
61201;DHT22;47065;52.898;6.992;2023-02-25T17:50:58;2.70;99.90
61201;DHT22;47065;52.898;6.992;2023-02-25T17:53:37;2.70;99.90
61201;DHT22;47065;52.898;6.992;2023-02-25T17:56:14;2.70;99.90
61201;DHT22;47065;52.898;6.992;2023-02-25T17:58:41;2.60;99.90
61201;DHT22;47065;52.898;6.992;2023-02-25T18:01:18;2.60;99.90
61201;DHT22;47065;52.898;6.992;2023-02-25T18:03:46;2.50;99.90
61201;DHT22;47065;52.898;6.992;2023-02-25T18:06:41;2.50;99.90
61201;DHT22;47065;52.898;6.992;2023-02-25T18:12:02;2.40;99.90
61201;DHT22;47065;52.898;6.992;2023-02-25T18:14:33;2.40;99.90
61201;DHT22;47065;52.898;6.992;2023-02-25T18:17:09;2.30;99.90
61201;DHT22;47065;52.898;6.992;2023-02-25T18:19:40;2.30;99.90
61201;DHT22;47065;52.898;6.992;2023-02-25T18:22:31;2.20;99.90
61201;DHT22;47065;52.898;6.992;2023-02-25T18:25:00;2.20;99.90
61201;DHT22;47065;52.898;6.992;2023-02-25T18:27:28;2.10;99.90
61201;DHT22;47065;52.898;6.992;2023-02-25T18:30:15;2.10;99.90
61201;DHT22;47065;52.898;6.992;2023-02-25T18:32:43;2.10;99.90
61201;DHT22;47065;52.898;6.992;2023-02-25T18:35:09;1.90;99.90
61201;DHT22;47065;52.898;6.992;2023-02-25T18:37:34;1.90;99.90
61201;DHT22;47065;52.898;6.992;2023-02-25T18:40:00;1.80;99.90
61201;DHT22;47065;52.898;6.992;2023-02-25T18:42:26;1.80;99.90
61201;DHT22;47065;52.898;6.992;2023-02-25T18:44:51;1.70;99.90
61201;DHT22;47065;52.898;6.992;2023-02-25T18:47:17;1.60;99.90
61201;DHT22;47065;52.898;6.992;2023-02-25T18:49:46;1.60;99.90
61201;DHT22;47065;52.898;6.992;2023-02-25T18:52:21;1.60;99.90
61201;DHT22;47065;52.898;6.992;2023-02-25T18:54:48;1.60;99.90
61201;DHT22;47065;52.898;6.992;2023-02-25T18:57:20;1.60;99.90
61201;DHT22;47065;52.898;6.992;2023-02-25T18:59:46;1.60;99.90
61201;DHT22;47065;52.898;6.992;2023-02-25T19:02:22;1.60;99.90
61201;DHT22;47065;52.898;6.992;2023-02-25T19:04:50;1.60;99.90
61201;DHT22;47065;52.898;6.992;2023-02-25T19:07:16;1.70;99.90
61201;DHT22;47065;52.898;6.992;2023-02-25T19:09:41;1.70;99.90
61201;DHT22;47065;52.898;6.992;2023-02-25T19:12:11;1.70;99.90
61201;DHT22;47065;52.898;6.992;2023-02-25T19:14:37;1.80;99.90
61201;DHT22;47065;52.898;6.992;2023-02-25T19:17:03;1.80;99.90
61201;DHT22;47065;52.898;6.992;2023-02-25T19:19:30;1.80;99.90
61201;DHT22;47065;52.898;6.992;2023-02-25T19:21:56;1.70;99.90
61201;DHT22;47065;52.898;6.992;2023-02-25T19:24:22;1.60;99.90